Latest Coastal Weather Observations for Coles Point

IDS60701

Issued at 1:45 am CDT Thursday 27 November 2014 (issued every 10 minutes, with the page automatically refreshed every 10 minutes)

About coastal observations | Map of coastal stations | Coastal observations for SA | Marine services | Other Formats
Station Details ID: 018191 Name: COLES POINT Lat: -34.37 Lon: 135.37 Height: 28.0 m
Data from the previous 72 hours. | See also: Recent months at Coles Point
Date/Time
CDT
Temp

°C
Wind Pressure Rain
since 9am
mm
Weather Cloud Vis
km
Sea
Height
m
Swell
Dir
 
Speed
knots
Gust
knots
hPa Trend Height
m
Period
s
Dir
27/01:30am 15.5 SE 8 12 1022.6 - 0.0 - - - - - - -
27/01:00am 14.3 SSE 5 7 1023.0 - 0.0 - - - - - - -
27/12:30am 14.5 SE 6 9 1023.2 - 0.0 - - - - - - -
27/12:00am 14.4 SSE 8 11 1023.2 - 0.0 - - - - - - -
 
Date/Time
CDT
Temp

°C
Wind Pressure Rain
since 9am
mm
Weather Cloud Vis
km
Sea
Height
m
Swell
Dir
 
Speed
knots
Gust
knots
hPa Trend Height
m
Period
s
Dir
26/11:30pm 14.5 SE 7 9 1023.6 - 0.0 - - - - - - -
26/11:00pm 14.6 SE 8 11 1023.9 - 0.0 - - - - - - -
26/10:30pm 14.4 SSE 6 8 1023.9 - 0.0 - - - - - - -
26/10:00pm 14.8 SE 7 10 1023.6 - 0.0 - - - - - - -
26/09:30pm 15.3 SE 11 17 1023.3 - 0.0 - - - - - - -
26/09:00pm 15.9 SE 10 14 1023.1 - 0.0 - - - - - - -
26/08:30pm 16.8 SE 11 14 1022.8 - 0.0 - - - - - - -
26/08:00pm 17.9 SE 12 16 1022.7 - 0.0 - - - - - - -
26/07:30pm 19.3 ESE 11 16 1022.5 - 0.0 - - - - - - -
26/07:00pm 19.6 SE 12 17 1022.3 - 0.0 - - - - - - -
26/06:30pm 20.1 SE 13 19 1022.1 - 0.0 - - - - - - -
26/06:00pm 20.7 SE 12 18 1022.0 - 0.0 - - - - - - -
26/05:30pm 22.0 ESE 11 17 1021.8 - 0.0 - - - - - - -
26/05:00pm 21.0 SE 11 16 1021.7 - 0.0 - - - - - - -
26/04:30pm 21.0 S 17 25 1021.8 - 0.0 - - - - - - -
26/04:00pm 22.0 S 17 22 1021.7 - 0.0 - - - - - - -
26/03:30pm 21.7 S 17 22 1022.1 - 0.0 - - - - - - -
26/03:00pm 21.9 S 16 20 1022.0 - 0.0 - - - - - - -
26/02:30pm 22.1 SSW 17 23 1022.2 - 0.0 - - - - - - -
26/02:00pm 21.9 SSW 17 21 1022.7 - 0.0 - - - - - - -
26/01:30pm 21.1 SSW 16 21 1022.8 - 0.0 - - - - - - -
26/01:00pm 20.3 SSW 14 20 1023.2 - 0.0 - - - - - - -
26/12:43pm 20.6 S 16 21 1023.2 - 0.0 - - - - - - -
26/12:30pm 21.3 ESE 6 9 1023.4 - 0.0 - - - - - - -
26/12:00pm 21.1 E 9 14 1023.7 - 0.0 - - - - - - -
26/11:30am 20.7 SE 8 14 1023.8 - 0.0 - - - - - - -
26/11:00am 19.8 ESE 8 13 1023.8 - 0.0 - - - - - - -
26/10:30am 19.0 SE 8 12 1024.1 - 0.0 - - - - - - -
26/10:00am 18.2 SE 8 14 1024.3 - 0.0 - - - - - - -
26/09:30am 17.8 SSE 8 13 1024.5 - 0.0 - - - - - - -
26/09:00am 17.3 SE 8 11 1024.6 - 0.0 - - - - - - -
26/08:30am 16.1 SSE 7 11 1024.5 - 0.0 - - - - - - -
26/08:00am 15.3 SSE 7 9 1024.3 - 0.0 - - - - - - -
26/07:30am 13.2 SSE 4 6 1023.9 - 0.0 - - - - - - -
26/07:00am 10.9 SE 4 5 1023.4 - 0.0 - - - - - - -
26/06:30am 8.8 SE 1 3 1023.0 - 0.0 - - - - - - -
26/06:00am 8.8 SE 3 4 1022.4 - 0.0 - - - - - - -
26/05:30am 9.5 SSE 5 6 1022.1 - 0.0 - - - - - - -
26/05:00am 9.4 SE 4 5 1022.0 - 0.0 - - - - - - -
26/04:30am 9.6 SSE 5 6 1022.1 - 0.0 - - - - - - -
26/04:00am 9.5 SSE 5 5 1022.2 - 0.0 - - - - - - -
26/03:30am 9.9 SE 6 7 1022.0 - 0.0 - - - - - - -
26/03:00am 10.4 SE 6 7 1022.3 - 0.0 - - - - - - -
26/02:30am 10.0 SE 6 7 1022.3 - 0.0 - - - - - - -
26/02:00am 9.6 SE 6 6 1022.7 - 0.0 - - - - - - -
26/01:30am 10.3 SE 6 6 1023.2 - 0.0 - - - - - - -
26/01:00am 10.4 SE 5 6 1023.5 - 0.0 - - - - - - -
26/12:30am 10.4 SE 5 5 1023.7 - 0.0 - - - - - - -
26/12:00am 11.3 SE 5 5 1023.8 - 0.0 - - - - - - -
 
Date/Time
CDT
Temp

°C
Wind Pressure Rain
since 9am
mm
Weather Cloud Vis
km
Sea
Height
m
Swell
Dir
 
Speed
knots
Gust
knots
hPa Trend Height
m
Period
s
Dir
25/11:30pm 11.3 SE 4 5 1023.9 - 0.0 - - - - - - -
25/11:00pm 11.7 SE 5 5 1024.0 - 0.0 - - - - - - -
25/10:30pm 11.7 SE 4 5 1024.1 - 0.0 - - - - - - -
25/10:00pm 12.9 SE 5 6 1024.0 - 0.0 - - - - - - -
25/09:30pm 13.9 SSE 5 6 1023.7 - 0.0 - - - - - - -
25/09:00pm 14.7 SSE 5 7 1023.6 - 0.0 - - - - - - -
25/08:30pm 15.5 SSE 8 11 1023.5 - 0.0 - - - - - - -
25/08:00pm 16.3 S 11 15 1023.4 - 0.0 - - - - - - -
25/07:30pm 17.0 S 10 13 1023.1 - 0.0 - - - - - - -
25/07:00pm 17.1 S 11 16 1022.8 - 0.0 - - - - - - -
25/06:30pm 17.9 SSW 13 17 1022.3 - 0.0 - - - - - - -
25/06:00pm 18.0 SSW 13 16 1022.2 - 0.0 - - - - - - -
25/05:30pm 18.5 SSW 13 17 1022.3 - 0.0 - - - - - - -
25/05:00pm 18.9 SSW 12 17 1022.2 - 0.0 - - - - - - -
25/04:30pm 19.5 SSW 12 17 1022.5 - 0.0 - - - - - - -
25/04:00pm 19.6 SW 11 14 1022.7 - 0.0 - - - - - - -
25/03:30pm 19.4 SW 11 14 1022.9 - 0.0 - - - - - - -
25/03:00pm 19.3 SW 11 14 1023.3 - 0.0 - - - - - - -
25/02:30pm 20.2 SW 10 13 1023.4 - 0.0 - - - - - - -
25/02:00pm 20.0 SW 11 13 1023.5 - 0.0 - - - - - - -
25/01:30pm 20.1 SSW 10 15 1023.6 - 0.0 - - - - - - -
25/01:00pm 18.9 SW 11 14 1023.8 - 0.0 - - - - - - -
25/12:30pm 18.7 WSW 6 10 1023.9 - 0.0 - - - - - - -
25/12:00pm 19.1 W 7 10 1024.0 - 0.0 - - - - - - -
25/11:30am 18.7 WSW 5 8 1024.1 - 0.0 - - - - - - -
25/11:00am 18.4 WSW 5 8 1024.2 - 0.0 - - - - - - -
25/10:30am 17.4 WSW 5 8 1024.3 - 0.0 - - - - - - -
25/10:00am 18.3 SW 4 6 1024.3 - 0.0 - - - - - - -
25/09:30am 17.0 SW 4 7 1024.2 - 0.0 - - - - - - -
25/09:00am 16.9 SW 3 6 1023.9 - - - - - - - - -
25/08:30am 15.8 NNE 3 5 1023.7 - - - - - - - - -
25/08:00am 15.1 ENE 4 5 1023.4 - - - - - - - - -
25/07:30am 15.2 NNE 5 7 1023.3 - - - - - - - - -
25/07:00am 14.1 NE 4 5 1022.9 - - - - - - - - -
25/06:30am 13.0 ENE 5 6 1022.6 - - - - - - - - -
25/06:00am 12.4 ENE 2 3 1022.3 - - - - - - - - -
25/05:30am 11.4 E 4 5 1022.0 - - - - - - - - -
25/05:00am 13.1 ESE 4 4 1021.7 - - - - - - - - -
25/04:30am 12.7 SSE 4 6 1021.6 - - - - - - - - -
25/04:00am 13.5 S 6 8 1021.5 - - - - - - - - -
25/03:30am 13.8 S 6 8 1021.5 - - - - - - - - -
25/03:00am 14.6 S 8 11 1021.3 - 0.0 - - - - - - -
25/02:30am 15.2 S 8 11 1021.3 - - - - - - - - -
25/02:00am 15.1 S 7 10 1021.3 - - - - - - - - -
25/01:30am 14.9 SSW 8 11 1021.4 - - - - - - - - -
25/01:00am 14.8 SSW 9 13 1021.6 - - - - - - - - -
25/12:30am 14.6 SSW 9 12 1021.6 - - - - - - - - -
25/12:00am 15.0 SSW 11 14 1021.5 - - - - - - - - -
 
Date/Time
CDT
Temp

°C
Wind Pressure Rain
since 9am
mm
Weather Cloud Vis
km
Sea
Height
m
Swell
Dir
 
Speed
knots
Gust
knots
hPa Trend Height
m
Period
s
Dir
24/11:30pm 14.7 SSW 9 12 1021.3 - - - - - - - - -
24/11:00pm 15.0 S 11 13 1021.2 - - - - - - - - -
24/10:30pm 14.9 SSW 10 14 1021.1 - - - - - - - - -
24/10:00pm 15.2 SSW 11 14 1020.9 - - - - - - - - -
24/09:30pm 15.2 SSW 12 16 1020.6 - - - - - - - - -
24/09:00pm 15.3 SSW 13 16 1020.2 - - - - - - - - -
24/08:30pm 15.5 SSW 13 18 1019.8 - - - - - - - - -
24/08:00pm 16.0 SSW 13 18 1019.6 - - - - - - - - -
24/07:30pm 16.6 SSW 13 17 1019.3 - - - - - - - - -
24/07:00pm 17.2 SSW 13 17 1018.9 - - - - - - - - -
24/06:30pm 16.8 SSW 14 17 1018.8 - - - - - - - - -
24/06:00pm 17.8 SSW 13 18 1018.7 - - - - - - - - -
24/05:30pm 18.5 SSW 15 18 1018.5 - - - - - - - - -
24/05:00pm 18.7 SSW 16 20 1018.3 - - - - - - - - -
24/04:30pm 18.6 SSW 15 19 1018.3 - - - - - - - - -
24/04:00pm 19.1 SSW 15 19 1018.2 - - - - - - - - -
24/03:30pm 18.8 SW 15 18 1017.9 - - - - - - - - -
24/02:30pm 19.8 SSW 15 19 1017.8 - 0.0 - - - - - - -
24/02:00pm 19.0 SSW 15 20 1017.7 - 0.0 - - - - - - -
24/01:30pm 19.8 SW 15 18 1017.8 - 0.0 - - - - - - -
24/01:00pm 20.1 SSW 15 20 1017.7 - 0.0 - - - - - - -
24/12:30pm 18.7 SSW 15 19 1017.5 - 0.0 - - - - - - -
24/12:00pm 19.4 SSW 16 20 1017.3 - 0.0 - - - - - - -
24/11:30am 18.4 SSW 15 20 1017.0 - 0.0 - - - - - - -
24/11:00am 19.3 SSW 16 19 1016.6 - 0.0 - - - - - - -
24/10:30am 19.2 SW 15 19 1016.6 - 0.0 - - - - - - -
24/10:00am 18.6 SSW 15 19 1016.3 - 0.0 - - - - - - -
24/09:30am 18.1 SSW 15 21 1016.0 - 0.0 - - - - - - -
24/09:00am 17.8 SSW 14 19 1015.6 - 0.0 - - - - - - -
24/08:30am 17.5 SSW 16 20 1015.1 - 0.0 - - - - - - -
24/08:00am 17.3 SSW 15 20 1014.6 - 0.0 - - - - - - -
24/07:30am 16.8 SW 13 18 1014.0 - 0.0 - - - - - - -
24/07:00am 16.6 SSW 10 14 1013.5 - 0.0 - - - - - - -
24/06:30am 16.4 SSW 12 17 1013.3 - 0.0 - - - - - - -
24/06:00am 16.5 SW 12 16 1012.7 - 0.0 - - - - - - -
24/05:30am 16.2 SSW 8 10 1012.3 - 0.0 - - - - - - -
24/05:00am 16.7 SSW 11 16 1012.0 - 0.0 - - - - - - -
24/04:30am 16.9 SSW 13 17 1011.6 - 0.0 - - - - - - -
24/04:00am 16.7 SSW 11 15 1011.1 - 0.0 - - - - - - -
24/03:30am 16.9 S 11 16 1010.7 - 0.0 - - - - - - -
24/03:00am 16.6 S 10 15 1010.7 - 0.0 - - - - - - -
24/02:30am 16.8 S 10 14 1010.7 - 0.0 - - - - - - -
24/02:00am 16.6 S 7 12 1010.5 - 0.0 - - - - - - -

Other Formats:

Comma delimited format used in spreadsheet applications
http://www.bom.gov.au/fwo/IDS60701/IDS60701.94658.axf

JavaScript Object Notation format (JSON) in row-major order
http://www.bom.gov.au/fwo/IDS60701/IDS60701.94658.json